Oak Harbor, WA

6:54 PM PST on February 09, 2016 (GMT -0800)
Crosswoods | | Change Station
CLOSE
Current Station
Personal Weather Station
Location: Oak Harbor, WA
Elevation: 150 ft
Nearby Weather Stations

Elev 150 ft 48.29 °N, 122.68 °W | Updated 11 seconds ago

Mostly Cloudy
Mostly Cloudy
43.2 °F
Feels Like 43 °F
N
0.0
Wind Variable Wind from ENE
Gusts 0.0 mph

Today
High -- | Low -- °F
--% Chance of Precip.
Yesterday
High -- | Low -- °F
Precip. -- in
Pressure 30.16 in
Visibility 10.0 miles
Clouds Scattered Clouds 15000 ft
Mostly Cloudy 25000 ft
Windchill 43 °F
Dew Point 41 °F
Humidity 92%
Rainfall 0.00 in
Snow Depth Not available.
7:28 AM 5:22 PM
Waxing Crescent, 3% visible
METAR KNUW 100156Z 00000KT 10SM SCT150 BKN250 08/06 A3016 RMK AO2 SLP213 T00780061 $
Pressure 30.16 in
Visibility 10.0 miles
Clouds Scattered Clouds 15000 ft
Mostly Cloudy 25000 ft
Windchill 43 °F
Dew Point 41 °F
Humidity 92%
Rainfall 0.00 in
Snow Depth Not available.
7:28 AM 5:22 PM
Waxing Crescent, 3% visible
METAR KNUW 100156Z 00000KT 10SM SCT150 BKN250 08/06 A3016 RMK AO2 SLP213 T00780061 $

10-Day Weather Forecast

Almanac

Astronomy

Feb. 09, 2016 Rise Set
Actual Time
Civil Twilight
Nautical Twilight
Astronomical Twilight
Moon
Length of Visible Light
Length of Day
Tomorrow will be .
, % of the Moon is Illuminated

Today's Extremes

State Highs State Lows

Community

WunderPhotos

Upload Photos

1,891,786 photos uploaded!

WunderBlog® & News

Nearby

Air Quality

  Air Quality AQ Index Pollutant
Not available.

Snow Depth

Station Depth Elevation

Earthquake Activity

City Distance Mag. Time & Date
Minimum magnitude displayed is 2.5.

Coastal Water Temperatures

Place Temperature

Stations

Nearby Weather Stations

Station Location Temp. Windchill Dew Point Humidity Wind Precip. Elev Updated Type
                   

Watches & Warnings

There are currently no watches in effect.